Weather at Karimbuni Airport

Public forecast

Using degrees Celsius for public forecast. Weather courtesy of forecast.io.

Closest aviation weather report (METAR) to Karimbuni Airport

Closest report is Nakuru Airport, 30.6 nm (56.7 km) N.

2024/05/22 04:00 (retrieved 1 hour ago)

HKNK 220400Z 00000KT 9999 FEW017 15/14

Closest aviation forecast (TAF) to Karimbuni Airport

Forecast is more than 12 hours old.

Closest forecast is Bukoba Airport, 258.3 nm (478.3 km) W.

2024/05/21 06:42 (retrieved 23 hours ago)

TAF HTBU 210500Z 2106/2206 13010KT 9999 FEW012 FEW014CB PROB30 TEMPO 2107/2110 TSRA SCT010 FEW012CB BKN080 BECMG 2202/2206 TSRA SCT012 FEW014CB BKN080